Poland, New York
Current Conditions -  °F | °C
As of 3:53 PM on Thursday 27 Nov 2014 (Local Time) from KRME Reporting Station
Light Snow Light Snow  
Wind Chill: 29°   Ceiling: 600
Heat Index: 29°   Visibility: 1.7mi
Dew Point: 28°   Wind: 3mph
Humidity: 96%   Direction: 270°W
Pressure: 30.04"   Gusts: NA
Location:  43.23°N, 75.06°W
Report Text: KRME 272053Z 27003KT 1 3/4SM -SN BR BKN006 OVC013 M02/M02 A3004 RMK AO2 CIG 004V011 SLP177 P0002 60007 T10171022 51006
Loading
Personal Weather Stations






























Interactive Weather Map New forecast layout! Learn more

10-Day Weather Forecast

Advertisements
Track Severe Weather on mobile